createdAt,value
2023-01-17T00:00:57.225Z,94010.06
2023-01-17T00:05:12.493Z,93987.72
2023-01-17T00:09:26.901Z,93994.44
2023-01-17T00:13:27.311Z,93989.00
2023-01-17T00:17:29.342Z,93994.81
2023-01-17T00:21:44.512Z,94011.22
2023-01-17T00:26:12.226Z,93964.19
2023-01-17T00:30:12.592Z,94004.63
2023-01-17T00:34:09.886Z,94006.91
2023-01-17T00:38:12.701Z,94028.19
2023-01-17T00:42:10.061Z,94027.63
2023-01-17T00:46:23.757Z,94035.28
2023-01-17T00:50:36.326Z,94048.22
2023-01-17T00:54:51.495Z,94043.44
2023-01-17T00:59:04.535Z,94049.09
2023-01-17T01:03:22.876Z,94039.72
2023-01-17T01:07:35.415Z,94047.59
2023-01-17T01:11:50.576Z,94056.03
2023-01-17T01:16:03.104Z,94061.09
2023-01-17T01:20:15.624Z,94065.09
2023-01-17T01:24:28.151Z,94067.34
2023-01-17T01:28:43.289Z,94084.84
2023-01-17T01:32:55.870Z,94075.38
2023-01-17T01:36:56.071Z,94102.34
2023-01-17T01:40:59.481Z,94099.97
2023-01-17T01:45:02.782Z,94118.56
2023-01-17T01:49:08.491Z,94118.25
2023-01-17T01:53:10.467Z,94113.78
2023-01-17T01:57:16.201Z,94117.53
2023-01-17T02:01:20.351Z,94121.38
2023-01-17T02:05:25.287Z,94119.34
2023-01-17T02:09:26.417Z,94122.75
2023-01-17T02:13:26.999Z,94118.28
2023-01-17T02:17:47.231Z,94067.44
2023-01-17T02:22:08.990Z,94115.66
2023-01-17T02:26:43.993Z,94116.78
2023-01-17T02:30:52.676Z,94118.47
2023-01-17T02:35:02.221Z,94086.59
2023-01-17T02:39:11.389Z,94140.53
2023-01-17T02:43:17.396Z,94128.09
2023-01-17T02:47:29.111Z,94124.81
2023-01-17T02:51:57.988Z,94143.72
2023-01-17T02:56:08.659Z,94131.88
2023-01-17T03:00:23.941Z,94135.34
2023-01-17T03:04:36.904Z,94129.53
2023-01-17T03:08:37.551Z,94120.78
2023-01-17T03:12:42.537Z,94137.34
2023-01-17T03:16:43.096Z,94143.91
2023-01-17T03:20:46.275Z,94150.41
2023-01-17T03:24:46.296Z,94142.16
2023-01-17T03:28:46.717Z,94126.84
2023-01-17T03:32:46.797Z,94135.81
2023-01-17T03:36:49.724Z,94142.88
2023-01-17T03:40:49.738Z,94148.06
2023-01-17T03:44:49.772Z,94085.59
2023-01-17T03:48:50.196Z,94165.03
2023-01-17T03:52:53.924Z,94172.34
2023-01-17T03:56:53.953Z,94173.03
2023-01-17T04:00:54.149Z,94142.19
2023-01-17T04:04:54.315Z,94191.81
2023-01-17T04:08:57.210Z,94163.69
2023-01-17T04:12:57.303Z,94196.41
2023-01-17T04:16:58.167Z,94177.09
2023-01-17T04:20:58.377Z,94192.69
2023-01-17T04:25:01.136Z,94200.25
2023-01-17T04:29:01.230Z,94201.50
2023-01-17T04:33:02.261Z,94181.78
2023-01-17T04:37:02.349Z,94201.50
2023-01-17T04:41:05.166Z,94205.34
2023-01-17T04:45:05.415Z,94214.50
2023-01-17T04:49:05.477Z,94205.66
2023-01-17T04:53:05.836Z,94207.56
2023-01-17T04:57:08.535Z,94215.41
2023-01-17T05:01:11.021Z,94238.34
2023-01-17T05:05:13.500Z,94213.53
2023-01-17T05:09:13.727Z,94232.78
2023-01-17T05:13:16.506Z,94212.41
2023-01-17T05:17:16.647Z,94226.59
2023-01-17T05:21:16.739Z,94209.72
2023-01-17T05:25:17.096Z,94216.63
2023-01-17T05:29:20.226Z,94225.53
2023-01-17T05:33:20.313Z,94237.19
2023-01-17T05:37:20.468Z,94252.44
2023-01-17T05:41:20.536Z,94251.97
2023-01-17T05:45:25.449Z,94265.00
2023-01-17T05:49:25.878Z,94262.56
2023-01-17T05:53:26.183Z,94264.91
2023-01-17T05:57:26.330Z,94263.34
2023-01-17T06:01:28.928Z,94259.81
2023-01-17T06:05:30.549Z,94245.06
2023-01-17T06:09:30.560Z,94258.78
2023-01-17T06:13:30.633Z,94287.63
2023-01-17T06:17:33.413Z,94290.66
2023-01-17T06:21:33.519Z,94283.31
2023-01-17T06:25:37.812Z,94269.38
2023-01-17T06:29:37.974Z,94298.94
2023-01-17T06:33:40.638Z,94288.94
2023-01-17T06:37:40.694Z,94251.44
2023-01-17T06:41:40.813Z,94300.19
2023-01-17T06:45:40.976Z,94308.97
2023-01-17T06:49:43.761Z,94300.34
2023-01-17T06:53:44.017Z,94322.91
2023-01-17T06:57:44.350Z,94315.97
2023-01-17T07:01:44.480Z,94299.09
2023-01-17T07:05:47.184Z,94321.75
2023-01-17T07:09:47.332Z,94324.28
2023-01-17T07:13:47.485Z,94328.97
2023-01-17T07:17:47.484Z,94325.53
2023-01-17T07:21:53.289Z,94333.78
2023-01-17T07:25:57.958Z,94323.78
2023-01-17T07:29:58.088Z,94331.13
2023-01-17T07:33:58.166Z,94323.25
2023-01-17T07:38:01.039Z,94336.06
2023-01-17T07:42:01.040Z,94337.97
2023-01-17T07:46:02.330Z,94338.38
2023-01-17T07:50:02.886Z,94319.44
2023-01-17T07:54:05.625Z,94319.66
2023-01-17T07:58:06.021Z,94318.69
2023-01-17T08:02:06.141Z,94308.75
2023-01-17T08:06:07.053Z,94284.66
2023-01-17T08:10:13.198Z,94322.63
2023-01-17T08:14:13.281Z,94321.63
2023-01-17T08:18:13.442Z,94307.22
2023-01-17T08:22:14.655Z,94284.53
2023-01-17T08:26:22.272Z,94291.03
2023-01-17T08:30:22.486Z,94284.84
2023-01-17T08:34:22.813Z,94289.31
2023-01-17T08:38:24.070Z,94293.41
2023-01-17T08:42:26.779Z,94313.41
2023-01-17T08:46:27.216Z,94293.06
2023-01-17T08:50:27.367Z,94298.34
2023-01-17T08:54:27.435Z,94308.59
2023-01-17T08:58:31.603Z,94305.63
2023-01-17T09:02:31.829Z,94298.56
2023-01-17T09:06:31.940Z,94256.03
2023-01-17T09:10:32.064Z,94306.69
2023-01-17T09:14:34.754Z,94302.16
2023-01-17T09:18:37.005Z,94293.88
2023-01-17T09:22:39.096Z,94297.41
2023-01-17T09:26:39.623Z,94290.69
2023-01-17T09:30:42.435Z,94307.56
2023-01-17T09:34:42.504Z,94317.81
2023-01-17T09:38:42.837Z,94317.56
2023-01-17T09:42:44.672Z,94309.50
2023-01-17T09:46:54.976Z,94296.00
2023-01-17T09:51:02.766Z,94304.94
2023-01-17T09:55:02.863Z,94312.03
2023-01-17T09:59:32.742Z,94303.16
2023-01-17T10:04:01.863Z,94288.91
2023-01-17T10:08:19.169Z,94304.34
2023-01-17T10:12:35.948Z,94287.34
2023-01-17T10:16:51.466Z,94287.19
2023-01-17T10:21:07.355Z,94285.50
2023-01-17T10:25:43.035Z,94281.47
2023-01-17T10:29:43.979Z,94271.53
2023-01-17T10:33:51.237Z,94267.50
2023-01-17T10:37:59.858Z,94275.75
2023-01-17T10:42:09.393Z,94273.38
2023-01-17T10:46:18.505Z,94241.19
2023-01-17T10:50:19.938Z,94249.72
2023-01-17T10:54:51.849Z,94223.78
2023-01-17T10:59:00.724Z,94217.25
2023-01-17T11:03:02.271Z,94242.44
2023-01-17T11:07:18.447Z,94235.84
2023-01-17T11:11:23.173Z,94210.41
2023-01-17T11:15:26.052Z,94168.50
2023-01-17T11:19:35.485Z,94200.78
2023-01-17T11:23:37.066Z,94186.00
2023-01-17T11:27:42.318Z,94191.31
2023-01-17T11:31:42.474Z,94189.75
2023-01-17T11:35:48.223Z,94198.31
2023-01-17T11:39:50.045Z,94195.84
2023-01-17T11:43:59.639Z,94197.16
2023-01-17T11:48:14.770Z,94185.50
2023-01-17T11:52:25.234Z,94172.16
2023-01-17T11:56:35.861Z,94168.25
2023-01-17T12:00:48.649Z,94163.44
2023-01-17T12:05:04.097Z,94163.06
2023-01-17T12:09:25.172Z,94165.53
2023-01-17T12:13:55.867Z,94160.66
2023-01-17T12:18:24.754Z,94142.44
2023-01-17T12:22:45.245Z,94112.41
2023-01-17T12:26:56.127Z,94116.94
2023-01-17T12:31:21.957Z,94111.75
2023-01-17T12:35:38.624Z,94110.63
2023-01-17T12:39:44.779Z,94107.09
2023-01-17T12:43:47.044Z,94107.69
2023-01-17T12:47:55.464Z,94113.38
2023-01-17T12:52:08.025Z,94092.38
2023-01-17T12:56:19.040Z,94104.75
2023-01-17T13:00:25.575Z,94097.84
2023-01-17T13:04:33.140Z,94116.63
2023-01-17T13:08:43.281Z,94125.38
2023-01-17T13:12:44.336Z,94113.25
2023-01-17T13:16:51.734Z,94106.38
2023-01-17T13:21:11.255Z,94109.78
2023-01-17T13:25:35.490Z,94106.06
2023-01-17T13:29:49.081Z,94113.44
2023-01-17T13:34:21.269Z,94112.69
2023-01-17T13:39:06.097Z,94094.38
2023-01-17T13:43:16.582Z,94097.97
2023-01-17T13:47:43.685Z,94089.72
2023-01-17T13:52:07.697Z,94026.44
2023-01-17T13:56:17.368Z,94070.94
2023-01-17T14:00:56.266Z,94077.69
2023-01-17T14:05:15.267Z,94067.06
2023-01-17T14:09:23.846Z,94075.13
2023-01-17T14:13:37.971Z,94079.34
2023-01-17T14:17:59.137Z,94069.66
2023-01-17T14:22:25.481Z,94076.50
2023-01-17T14:26:48.189Z,94063.22
2023-01-17T14:30:54.279Z,94054.34
2023-01-17T14:34:57.711Z,94029.75
2023-01-17T14:38:57.947Z,94042.34
2023-01-17T14:43:05.825Z,94045.59
2023-01-17T14:47:05.938Z,94049.84
2023-01-17T14:51:16.713Z,94047.91
2023-01-17T14:55:21.348Z,94039.09
2023-01-17T14:59:25.747Z,94042.94
2023-01-17T15:03:26.421Z,94031.22
2023-01-17T15:07:31.648Z,94029.53
2023-01-17T15:11:36.213Z,94023.41
2023-01-17T15:15:39.715Z,93958.22
2023-01-17T15:19:46.375Z,94014.09
2023-01-17T15:23:53.317Z,94000.78
2023-01-17T15:27:54.092Z,93994.03
2023-01-17T15:31:58.257Z,94002.28
2023-01-17T15:36:03.984Z,93995.56
2023-01-17T15:40:20.917Z,93998.78
2023-01-17T15:44:49.962Z,94006.16
2023-01-17T15:48:51.921Z,93992.84
2023-01-17T15:52:53.131Z,94003.31
2023-01-17T15:57:22.716Z,93943.78
2023-01-17T16:01:28.372Z,94005.03
2023-01-17T16:05:43.596Z,93975.16
2023-01-17T16:09:47.092Z,94001.78
2023-01-17T16:13:50.370Z,93999.00
2023-01-17T16:17:54.869Z,93996.53
2023-01-17T16:21:57.151Z,93996.78
2023-01-17T16:25:57.360Z,94007.31
2023-01-17T16:29:59.967Z,94003.00
2023-01-17T16:33:59.978Z,93986.72
2023-01-17T16:38:03.740Z,94010.19
2023-01-17T16:42:05.224Z,94011.63
2023-01-17T16:46:08.837Z,94008.25
2023-01-17T16:50:09.956Z,94019.25
2023-01-17T16:54:09.953Z,94007.59
2023-01-17T16:58:10.363Z,93997.63
2023-01-17T17:02:15.228Z,94006.34
2023-01-17T17:06:15.862Z,93998.00
2023-01-17T17:10:20.080Z,93993.44
2023-01-17T17:14:20.410Z,93992.03
2023-01-17T17:18:23.345Z,93981.13
2023-01-17T17:22:23.552Z,93991.00
2023-01-17T17:26:23.602Z,93974.59
2023-01-17T17:30:23.725Z,93911.72
2023-01-17T17:34:28.174Z,93962.97
2023-01-17T17:38:28.223Z,93961.50
2023-01-17T17:42:28.364Z,93987.72
2023-01-17T17:46:29.783Z,93985.44
2023-01-17T17:50:32.716Z,93986.75
2023-01-17T17:54:33.196Z,94004.19
2023-01-17T17:58:37.228Z,93979.13
2023-01-17T18:02:37.268Z,93999.00
2023-01-17T18:06:40.926Z,94010.06
2023-01-17T18:10:42.557Z,94014.00
2023-01-17T18:14:43.062Z,94011.34
2023-01-17T18:18:47.787Z,94023.69
2023-01-17T18:22:50.449Z,93995.78
2023-01-17T18:26:53.175Z,94002.66
2023-01-17T18:30:53.875Z,94006.84
2023-01-17T18:34:54.317Z,94005.78
2023-01-17T18:38:57.221Z,94019.38
2023-01-17T18:42:57.576Z,94025.84
2023-01-17T18:46:59.559Z,94031.31
2023-01-17T18:51:01.132Z,94016.16
2023-01-17T18:55:03.827Z,93994.75
2023-01-17T18:59:05.787Z,94017.25
2023-01-17T19:03:06.435Z,94027.66
2023-01-17T19:07:06.626Z,94048.31
2023-01-17T19:11:10.631Z,94053.91
2023-01-17T19:15:12.932Z,94049.78
2023-01-17T19:19:16.604Z,94056.53
2023-01-17T19:23:16.716Z,94065.41
2023-01-17T19:27:19.448Z,94070.13
2023-01-17T19:31:23.138Z,94060.69
2023-01-17T19:35:23.322Z,94058.53
2023-01-17T19:39:26.183Z,94057.03
2023-01-17T19:43:28.962Z,94065.63
2023-01-17T19:47:29.068Z,94066.97
2023-01-17T19:51:30.172Z,94064.44
2023-01-17T19:55:30.250Z,94063.09
2023-01-17T19:59:32.963Z,94052.94
2023-01-17T20:03:33.151Z,94069.03
2023-01-17T20:07:33.872Z,94072.72
2023-01-17T20:11:34.000Z,94070.25
2023-01-17T20:15:37.470Z,94062.50
2023-01-17T20:19:38.164Z,94079.25
2023-01-17T20:23:40.330Z,94078.72
2023-01-17T20:27:41.123Z,94080.25
2023-01-17T20:31:45.632Z,94056.06
2023-01-17T20:35:45.672Z,94074.16
2023-01-17T20:39:45.912Z,94075.44
2023-01-17T20:43:47.631Z,94050.28
2023-01-17T20:47:50.510Z,94062.44
2023-01-17T20:51:51.399Z,94054.25
2023-01-17T20:55:59.823Z,94030.44
2023-01-17T20:59:59.878Z,94037.19
2023-01-17T21:04:03.436Z,94059.69
2023-01-17T21:08:04.043Z,94050.16
2023-01-17T21:12:04.336Z,94052.06
2023-01-17T21:16:04.644Z,94036.38
2023-01-17T21:20:08.606Z,94014.47
2023-01-17T21:24:09.323Z,94034.81
2023-01-17T21:28:09.360Z,94026.97
2023-01-17T21:32:09.670Z,94029.56
2023-01-17T21:36:13.288Z,94028.91
2023-01-17T21:40:17.113Z,93995.94
2023-01-17T21:44:21.926Z,94025.78
2023-01-17T21:48:21.962Z,94025.50
2023-01-17T21:52:24.783Z,94016.78
2023-01-17T21:56:37.634Z,94017.06
2023-01-17T22:00:38.243Z,93971.28
2023-01-17T22:04:38.284Z,94028.44
2023-01-17T22:08:41.231Z,94028.25
2023-01-17T22:12:41.318Z,94014.06
2023-01-17T22:16:41.302Z,94025.63
2023-01-17T22:20:43.298Z,94030.09
2023-01-17T22:24:45.896Z,94018.81
2023-01-17T22:28:47.022Z,94014.66
2023-01-17T22:32:47.029Z,94010.84
2023-01-17T22:36:47.096Z,94031.41
2023-01-17T22:40:49.713Z,94031.75
2023-01-17T22:44:50.165Z,94039.06
2023-01-17T22:48:52.227Z,94041.09
2023-01-17T22:52:52.317Z,94042.69
2023-01-17T22:56:54.974Z,94049.44
2023-01-17T23:00:57.411Z,94052.63
2023-01-17T23:04:57.525Z,94042.53
2023-01-17T23:09:01.781Z,94021.78
2023-01-17T23:13:04.428Z,94046.69
2023-01-17T23:17:19.233Z,94051.66
2023-01-17T23:21:19.354Z,94050.22
2023-01-17T23:25:19.639Z,94049.63
2023-01-17T23:29:19.919Z,94047.47
2023-01-17T23:33:20.409Z,94050.19
2023-01-17T23:37:20.482Z,94048.66
2023-01-17T23:41:32.982Z,94049.63
2023-01-17T23:45:38.839Z,94030.00
2023-01-17T23:49:38.837Z,94046.94
2023-01-17T23:53:40.685Z,94030.31
2023-01-17T23:57:40.942Z,94031.44
